sensor_id;sensor_type;location;lat;lon;timestamp;P1;durP1;ratioP1;P2;durP2;ratioP2
40945;SDS011;55635;50.264;11.918;2024-03-08T00:00:53;52.92;;;26.02;;
40945;SDS011;55635;50.264;11.918;2024-03-08T00:03:35;49.83;;;24.23;;
40945;SDS011;55635;50.264;11.918;2024-03-08T00:06:16;48.42;;;24.63;;
40945;SDS011;55635;50.264;11.918;2024-03-08T00:08:57;52.55;;;24.08;;
40945;SDS011;55635;50.264;11.918;2024-03-08T00:11:38;51.33;;;24.45;;
40945;SDS011;55635;50.264;11.918;2024-03-08T00:14:20;47.13;;;24.08;;
40945;SDS011;55635;50.264;11.918;2024-03-08T00:17:01;51.92;;;25.50;;
40945;SDS011;55635;50.264;11.918;2024-03-08T00:19:43;48.45;;;23.70;;
40945;SDS011;55635;50.264;11.918;2024-03-08T00:22:24;48.28;;;24.30;;
40945;SDS011;55635;50.264;11.918;2024-03-08T00:25:06;50.80;;;23.45;;
40945;SDS011;55635;50.264;11.918;2024-03-08T00:27:52;45.20;;;23.17;;
40945;SDS011;55635;50.264;11.918;2024-03-08T00:30:36;52.15;;;23.05;;
40945;SDS011;55635;50.264;11.918;2024-03-08T00:33:17;50.38;;;24.20;;
40945;SDS011;55635;50.264;11.918;2024-03-08T00:35:58;49.97;;;25.08;;
40945;SDS011;55635;50.264;11.918;2024-03-08T00:38:39;51.53;;;23.67;;
40945;SDS011;55635;50.264;11.918;2024-03-08T00:41:20;47.67;;;23.50;;
40945;SDS011;55635;50.264;11.918;2024-03-08T00:44:01;47.88;;;24.52;;
40945;SDS011;55635;50.264;11.918;2024-03-08T00:46:44;49.25;;;24.13;;
40945;SDS011;55635;50.264;11.918;2024-03-08T00:49:25;45.55;;;22.80;;
40945;SDS011;55635;50.264;11.918;2024-03-08T00:52:07;50.17;;;24.80;;
40945;SDS011;55635;50.264;11.918;2024-03-08T00:54:48;47.65;;;23.88;;
40945;SDS011;55635;50.264;11.918;2024-03-08T00:57:29;49.63;;;24.02;;
40945;SDS011;55635;50.264;11.918;2024-03-08T01:00:11;46.85;;;24.35;;
40945;SDS011;55635;50.264;11.918;2024-03-08T01:02:52;50.85;;;24.63;;
40945;SDS011;55635;50.264;11.918;2024-03-08T01:05:34;52.65;;;25.88;;
40945;SDS011;55635;50.264;11.918;2024-03-08T01:08:15;50.30;;;24.45;;
40945;SDS011;55635;50.264;11.918;2024-03-08T01:10:56;50.15;;;25.15;;
40945;SDS011;55635;50.264;11.918;2024-03-08T01:13:37;49.67;;;23.60;;
40945;SDS011;55635;50.264;11.918;2024-03-08T01:16:18;47.47;;;22.85;;
40945;SDS011;55635;50.264;11.918;2024-03-08T01:19:01;52.67;;;26.08;;
40945;SDS011;55635;50.264;11.918;2024-03-08T01:21:43;51.85;;;24.05;;
40945;SDS011;55635;50.264;11.918;2024-03-08T01:24:24;47.67;;;25.33;;
40945;SDS011;55635;50.264;11.918;2024-03-08T01:27:05;54.40;;;25.88;;
40945;SDS011;55635;50.264;11.918;2024-03-08T01:29:49;52.38;;;26.10;;
40945;SDS011;55635;50.264;11.918;2024-03-08T01:32:30;55.67;;;26.23;;
40945;SDS011;55635;50.264;11.918;2024-03-08T01:35:11;55.33;;;25.38;;
40945;SDS011;55635;50.264;11.918;2024-03-08T01:37:53;54.53;;;25.38;;
40945;SDS011;55635;50.264;11.918;2024-03-08T01:40:34;49.78;;;25.90;;
40945;SDS011;55635;50.264;11.918;2024-03-08T01:43:26;57.17;;;26.30;;
40945;SDS011;55635;50.264;11.918;2024-03-08T01:46:08;57.60;;;26.35;;
40945;SDS011;55635;50.264;11.918;2024-03-08T01:48:51;55.65;;;25.63;;
40945;SDS011;55635;50.264;11.918;2024-03-08T01:51:32;53.08;;;24.45;;
40945;SDS011;55635;50.264;11.918;2024-03-08T01:54:14;46.80;;;23.42;;
40945;SDS011;55635;50.264;11.918;2024-03-08T01:56:57;48.75;;;24.52;;
40945;SDS011;55635;50.264;11.918;2024-03-08T01:59:38;49.80;;;24.25;;
40945;SDS011;55635;50.264;11.918;2024-03-08T02:02:21;49.00;;;24.38;;
40945;SDS011;55635;50.264;11.918;2024-03-08T02:05:03;49.38;;;24.58;;
40945;SDS011;55635;50.264;11.918;2024-03-08T02:07:46;48.10;;;24.02;;
40945;SDS011;55635;50.264;11.918;2024-03-08T02:10:27;47.72;;;23.30;;
40945;SDS011;55635;50.264;11.918;2024-03-08T02:13:08;53.45;;;25.02;;
40945;SDS011;55635;50.264;11.918;2024-03-08T02:15:54;47.65;;;24.63;;
40945;SDS011;55635;50.264;11.918;2024-03-08T02:18:37;46.85;;;23.35;;
40945;SDS011;55635;50.264;11.918;2024-03-08T02:21:19;47.53;;;24.65;;
40945;SDS011;55635;50.264;11.918;2024-03-08T02:24:01;49.38;;;24.08;;
40945;SDS011;55635;50.264;11.918;2024-03-08T02:26:42;48.10;;;24.83;;
40945;SDS011;55635;50.264;11.918;2024-03-08T02:29:23;49.08;;;24.00;;
40945;SDS011;55635;50.264;11.918;2024-03-08T02:32:05;47.85;;;24.08;;
40945;SDS011;55635;50.264;11.918;2024-03-08T02:34:46;50.78;;;24.80;;
40945;SDS011;55635;50.264;11.918;2024-03-08T02:37:28;47.78;;;24.83;;
40945;SDS011;55635;50.264;11.918;2024-03-08T02:40:09;48.58;;;23.52;;
40945;SDS011;55635;50.264;11.918;2024-03-08T02:42:52;46.22;;;24.60;;
40945;SDS011;55635;50.264;11.918;2024-03-08T02:45:33;45.35;;;22.55;;
40945;SDS011;55635;50.264;11.918;2024-03-08T02:48:15;49.10;;;24.98;;
40945;SDS011;55635;50.264;11.918;2024-03-08T02:50:56;47.67;;;25.17;;
40945;SDS011;55635;50.264;11.918;2024-03-08T02:53:37;49.88;;;24.63;;
40945;SDS011;55635;50.264;11.918;2024-03-08T02:56:18;52.40;;;25.17;;
40945;SDS011;55635;50.264;11.918;2024-03-08T02:59:01;48.95;;;23.75;;
40945;SDS011;55635;50.264;11.918;2024-03-08T03:01:43;46.95;;;22.95;;
40945;SDS011;55635;50.264;11.918;2024-03-08T03:04:24;46.95;;;24.88;;
40945;SDS011;55635;50.264;11.918;2024-03-08T03:07:05;48.33;;;24.75;;
40945;SDS011;55635;50.264;11.918;2024-03-08T03:09:46;49.08;;;24.27;;
40945;SDS011;55635;50.264;11.918;2024-03-08T03:12:30;53.53;;;26.23;;
40945;SDS011;55635;50.264;11.918;2024-03-08T03:15:12;55.05;;;25.42;;
40945;SDS011;55635;50.264;11.918;2024-03-08T03:17:53;52.00;;;25.08;;
40945;SDS011;55635;50.264;11.918;2024-03-08T03:20:35;49.55;;;25.02;;
40945;SDS011;55635;50.264;11.918;2024-03-08T03:23:25;55.47;;;25.65;;
40945;SDS011;55635;50.264;11.918;2024-03-08T03:26:06;49.70;;;24.77;;
40945;SDS011;55635;50.264;11.918;2024-03-08T03:28:47;50.53;;;25.38;;
40945;SDS011;55635;50.264;11.918;2024-03-08T03:31:28;50.67;;;24.95;;
40945;SDS011;55635;50.264;11.918;2024-03-08T03:34:11;52.42;;;24.83;;
40945;SDS011;55635;50.264;11.918;2024-03-08T03:36:52;52.53;;;24.25;;
40945;SDS011;55635;50.264;11.918;2024-03-08T03:39:35;51.15;;;26.05;;
40945;SDS011;55635;50.264;11.918;2024-03-08T03:42:24;58.88;;;26.33;;
40945;SDS011;55635;50.264;11.918;2024-03-08T03:45:06;57.47;;;26.58;;
40945;SDS011;55635;50.264;11.918;2024-03-08T03:47:49;53.70;;;26.02;;
40945;SDS011;55635;50.264;11.918;2024-03-08T03:50:32;51.47;;;25.65;;
40945;SDS011;55635;50.264;11.918;2024-03-08T03:53:16;58.80;;;26.73;;
40945;SDS011;55635;50.264;11.918;2024-03-08T03:55:57;56.60;;;26.52;;
40945;SDS011;55635;50.264;11.918;2024-03-08T03:58:39;55.30;;;26.27;;
40945;SDS011;55635;50.264;11.918;2024-03-08T04:01:20;57.65;;;27.35;;
40945;SDS011;55635;50.264;11.918;2024-03-08T04:04:01;55.58;;;25.63;;
40945;SDS011;55635;50.264;11.918;2024-03-08T04:06:43;57.42;;;28.00;;
40945;SDS011;55635;50.264;11.918;2024-03-08T04:09:25;61.20;;;26.83;;
40945;SDS011;55635;50.264;11.918;2024-03-08T04:12:06;56.67;;;26.27;;
40945;SDS011;55635;50.264;11.918;2024-03-08T04:14:49;58.03;;;28.25;;
40945;SDS011;55635;50.264;11.918;2024-03-08T04:17:30;60.47;;;27.73;;
40945;SDS011;55635;50.264;11.918;2024-03-08T04:20:11;57.90;;;28.65;;
40945;SDS011;55635;50.264;11.918;2024-03-08T04:22:54;58.95;;;28.58;;
40945;SDS011;55635;50.264;11.918;2024-03-08T04:25:36;58.22;;;27.75;;
40945;SDS011;55635;50.264;11.918;2024-03-08T04:28:17;59.28;;;27.08;;
40945;SDS011;55635;50.264;11.918;2024-03-08T04:30:58;54.53;;;28.15;;
40945;SDS011;55635;50.264;11.918;2024-03-08T04:33:40;62.58;;;28.15;;
40945;SDS011;55635;50.264;11.918;2024-03-08T04:36:22;59.20;;;28.20;;
40945;SDS011;55635;50.264;11.918;2024-03-08T04:39:04;58.65;;;28.13;;
40945;SDS011;55635;50.264;11.918;2024-03-08T04:41:46;63.20;;;29.20;;
40945;SDS011;55635;50.264;11.918;2024-03-08T04:44:27;66.43;;;29.48;;
40945;SDS011;55635;50.264;11.918;2024-03-08T04:47:08;58.45;;;28.58;;
40945;SDS011;55635;50.264;11.918;2024-03-08T04:49:50;58.40;;;29.73;;
40945;SDS011;55635;50.264;11.918;2024-03-08T04:52:31;64.25;;;29.65;;
40945;SDS011;55635;50.264;11.918;2024-03-08T04:55:12;64.28;;;29.63;;
40945;SDS011;55635;50.264;11.918;2024-03-08T04:57:53;62.50;;;30.15;;
40945;SDS011;55635;50.264;11.918;2024-03-08T05:00:34;64.60;;;29.73;;
40945;SDS011;55635;50.264;11.918;2024-03-08T05:03:15;70.70;;;29.65;;
40945;SDS011;55635;50.264;11.918;2024-03-08T05:05:56;64.32;;;30.20;;
40945;SDS011;55635;50.264;11.918;2024-03-08T05:08:37;67.15;;;30.15;;
40945;SDS011;55635;50.264;11.918;2024-03-08T05:11:18;65.63;;;29.88;;
40945;SDS011;55635;50.264;11.918;2024-03-08T05:13:59;65.60;;;31.13;;
40945;SDS011;55635;50.264;11.918;2024-03-08T05:16:40;66.15;;;29.50;;
40945;SDS011;55635;50.264;11.918;2024-03-08T05:19:21;65.50;;;30.73;;
40945;SDS011;55635;50.264;11.918;2024-03-08T05:22:03;67.15;;;29.75;;
40945;SDS011;55635;50.264;11.918;2024-03-08T05:24:45;61.83;;;28.67;;
40945;SDS011;55635;50.264;11.918;2024-03-08T05:27:26;65.30;;;29.95;;
40945;SDS011;55635;50.264;11.918;2024-03-08T05:30:08;65.75;;;29.58;;
40945;SDS011;55635;50.264;11.918;2024-03-08T05:32:55;63.53;;;28.95;;
40945;SDS011;55635;50.264;11.918;2024-03-08T05:35:37;69.95;;;31.83;;
40945;SDS011;55635;50.264;11.918;2024-03-08T05:38:17;62.38;;;29.25;;
40945;SDS011;55635;50.264;11.918;2024-03-08T05:41:00;74.57;;;30.42;;
40945;SDS011;55635;50.264;11.918;2024-03-08T05:43:41;69.55;;;31.35;;
40945;SDS011;55635;50.264;11.918;2024-03-08T05:46:23;62.72;;;30.05;;
40945;SDS011;55635;50.264;11.918;2024-03-08T05:49:04;62.85;;;30.02;;
40945;SDS011;55635;50.264;11.918;2024-03-08T05:51:47;66.72;;;30.63;;
40945;SDS011;55635;50.264;11.918;2024-03-08T05:54:28;72.43;;;30.02;;
40945;SDS011;55635;50.264;11.918;2024-03-08T05:57:09;57.08;;;28.00;;
40945;SDS011;55635;50.264;11.918;2024-03-08T05:59:50;63.50;;;30.38;;
40945;SDS011;55635;50.264;11.918;2024-03-08T06:02:32;62.85;;;29.77;;
40945;SDS011;55635;50.264;11.918;2024-03-08T06:05:13;66.80;;;30.83;;
40945;SDS011;55635;50.264;11.918;2024-03-08T06:07:54;68.20;;;30.90;;
40945;SDS011;55635;50.264;11.918;2024-03-08T06:10:36;63.50;;;30.95;;
40945;SDS011;55635;50.264;11.918;2024-03-08T06:13:18;63.53;;;28.77;;
40945;SDS011;55635;50.264;11.918;2024-03-08T06:15:59;69.15;;;31.50;;
40945;SDS011;55635;50.264;11.918;2024-03-08T06:18:44;63.20;;;30.27;;
40945;SDS011;55635;50.264;11.918;2024-03-08T06:21:26;62.17;;;29.13;;
40945;SDS011;55635;50.264;11.918;2024-03-08T06:24:08;60.58;;;28.55;;
40945;SDS011;55635;50.264;11.918;2024-03-08T06:26:49;58.78;;;29.15;;
40945;SDS011;55635;50.264;11.918;2024-03-08T06:29:30;57.55;;;29.98;;
40945;SDS011;55635;50.264;11.918;2024-03-08T06:32:18;60.50;;;28.80;;
40945;SDS011;55635;50.264;11.918;2024-03-08T06:35:00;65.88;;;29.38;;
40945;SDS011;55635;50.264;11.918;2024-03-08T06:37:42;62.72;;;29.05;;
40945;SDS011;55635;50.264;11.918;2024-03-08T06:40:24;69.07;;;31.38;;
40945;SDS011;55635;50.264;11.918;2024-03-08T06:43:05;78.10;;;35.33;;
40945;SDS011;55635;50.264;11.918;2024-03-08T06:45:46;71.07;;;30.90;;
40945;SDS011;55635;50.264;11.918;2024-03-08T06:48:32;60.53;;;29.38;;
40945;SDS011;55635;50.264;11.918;2024-03-08T06:51:14;62.85;;;30.00;;
40945;SDS011;55635;50.264;11.918;2024-03-08T06:53:55;60.03;;;28.10;;
40945;SDS011;55635;50.264;11.918;2024-03-08T06:56:37;61.05;;;29.35;;
40945;SDS011;55635;50.264;11.918;2024-03-08T06:59:21;61.85;;;28.30;;
40945;SDS011;55635;50.264;11.918;2024-03-08T07:02:04;51.80;;;26.90;;
40945;SDS011;55635;50.264;11.918;2024-03-08T07:04:50;64.13;;;29.90;;
40945;SDS011;55635;50.264;11.918;2024-03-08T07:07:33;55.17;;;26.77;;
40945;SDS011;55635;50.264;11.918;2024-03-08T07:10:14;58.03;;;27.33;;
40945;SDS011;55635;50.264;11.918;2024-03-08T07:12:56;61.80;;;27.58;;
40945;SDS011;55635;50.264;11.918;2024-03-08T07:15:38;56.33;;;27.10;;
40945;SDS011;55635;50.264;11.918;2024-03-08T07:18:20;49.95;;;24.33;;
40945;SDS011;55635;50.264;11.918;2024-03-08T07:21:02;51.38;;;25.35;;
40945;SDS011;55635;50.264;11.918;2024-03-08T07:23:43;60.75;;;25.58;;
40945;SDS011;55635;50.264;11.918;2024-03-08T07:26:43;46.83;;;23.70;;
40945;SDS011;55635;50.264;11.918;2024-03-08T07:29:24;47.75;;;24.73;;
40945;SDS011;55635;50.264;11.918;2024-03-08T07:32:05;44.78;;;21.90;;
40945;SDS011;55635;50.264;11.918;2024-03-08T07:35:01;44.38;;;22.58;;
40945;SDS011;55635;50.264;11.918;2024-03-08T07:37:44;43.53;;;23.13;;
40945;SDS011;55635;50.264;11.918;2024-03-08T07:40:26;41.47;;;22.25;;
40945;SDS011;55635;50.264;11.918;2024-03-08T07:43:07;40.60;;;21.65;;
40945;SDS011;55635;50.264;11.918;2024-03-08T07:45:48;39.42;;;21.48;;
40945;SDS011;55635;50.264;11.918;2024-03-08T07:48:29;37.40;;;20.75;;
40945;SDS011;55635;50.264;11.918;2024-03-08T07:51:15;35.80;;;20.65;;
40945;SDS011;55635;50.264;11.918;2024-03-08T07:53:57;36.03;;;20.15;;
40945;SDS011;55635;50.264;11.918;2024-03-08T07:56:40;34.60;;;21.58;;
40945;SDS011;55635;50.264;11.918;2024-03-08T07:59:22;38.33;;;21.08;;
40945;SDS011;55635;50.264;11.918;2024-03-08T08:02:03;35.45;;;20.27;;
40945;SDS011;55635;50.264;11.918;2024-03-08T08:04:45;42.78;;;20.58;;
40945;SDS011;55635;50.264;11.918;2024-03-08T08:07:26;37.03;;;20.13;;
40945;SDS011;55635;50.264;11.918;2024-03-08T08:10:08;36.95;;;21.48;;
40945;SDS011;55635;50.264;11.918;2024-03-08T08:12:55;40.10;;;21.02;;
40945;SDS011;55635;50.264;11.918;2024-03-08T08:15:37;36.47;;;20.25;;
40945;SDS011;55635;50.264;11.918;2024-03-08T08:18:18;37.55;;;21.83;;
40945;SDS011;55635;50.264;11.918;2024-03-08T08:21:02;38.50;;;21.15;;
40945;SDS011;55635;50.264;11.918;2024-03-08T08:23:43;36.60;;;20.42;;
40945;SDS011;55635;50.264;11.918;2024-03-08T08:26:24;37.63;;;20.55;;
40945;SDS011;55635;50.264;11.918;2024-03-08T08:29:06;38.33;;;20.92;;
40945;SDS011;55635;50.264;11.918;2024-03-08T08:31:48;36.45;;;19.05;;
40945;SDS011;55635;50.264;11.918;2024-03-08T08:34:30;34.20;;;19.20;;
40945;SDS011;55635;50.264;11.918;2024-03-08T08:37:11;35.65;;;19.40;;
40945;SDS011;55635;50.264;11.918;2024-03-08T08:39:52;33.28;;;19.80;;
40945;SDS011;55635;50.264;11.918;2024-03-08T08:42:34;33.15;;;18.65;;
40945;SDS011;55635;50.264;11.918;2024-03-08T08:45:16;33.42;;;18.80;;
40945;SDS011;55635;50.264;11.918;2024-03-08T08:47:58;36.33;;;20.45;;
40945;SDS011;55635;50.264;11.918;2024-03-08T08:50:39;34.30;;;19.40;;
40945;SDS011;55635;50.264;11.918;2024-03-08T08:53:21;34.65;;;19.45;;
40945;SDS011;55635;50.264;11.918;2024-03-08T08:56:03;34.80;;;19.00;;
40945;SDS011;55635;50.264;11.918;2024-03-08T08:58:44;34.75;;;19.52;;
40945;SDS011;55635;50.264;11.918;2024-03-08T09:01:25;33.70;;;18.40;;
40945;SDS011;55635;50.264;11.918;2024-03-08T09:04:07;35.92;;;19.23;;
40945;SDS011;55635;50.264;11.918;2024-03-08T09:06:48;38.85;;;20.10;;
40945;SDS011;55635;50.264;11.918;2024-03-08T09:09:29;38.13;;;21.20;;
40945;SDS011;55635;50.264;11.918;2024-03-08T09:12:10;38.05;;;20.95;;
40945;SDS011;55635;50.264;11.918;2024-03-08T09:14:53;37.13;;;21.27;;
40945;SDS011;55635;50.264;11.918;2024-03-08T09:17:35;36.30;;;20.65;;
40945;SDS011;55635;50.264;11.918;2024-03-08T09:20:16;35.90;;;20.27;;
40945;SDS011;55635;50.264;11.918;2024-03-08T09:22:57;39.08;;;20.73;;
40945;SDS011;55635;50.264;11.918;2024-03-08T09:25:39;35.60;;;20.42;;
40945;SDS011;55635;50.264;11.918;2024-03-08T09:28:20;37.97;;;19.35;;
40945;SDS011;55635;50.264;11.918;2024-03-08T09:31:01;39.20;;;19.88;;
40945;SDS011;55635;50.264;11.918;2024-03-08T09:33:42;41.33;;;20.42;;
40945;SDS011;55635;50.264;11.918;2024-03-08T09:36:24;35.13;;;18.50;;
40945;SDS011;55635;50.264;11.918;2024-03-08T09:39:05;35.78;;;20.33;;
40945;SDS011;55635;50.264;11.918;2024-03-08T09:41:47;37.40;;;20.10;;
40945;SDS011;55635;50.264;11.918;2024-03-08T09:44:29;37.30;;;20.55;;
40945;SDS011;55635;50.264;11.918;2024-03-08T09:47:11;37.50;;;20.50;;
40945;SDS011;55635;50.264;11.918;2024-03-08T09:49:54;43.63;;;22.35;;
40945;SDS011;55635;50.264;11.918;2024-03-08T09:52:36;34.85;;;17.88;;
40945;SDS011;55635;50.264;11.918;2024-03-08T09:55:17;34.50;;;19.33;;
40945;SDS011;55635;50.264;11.918;2024-03-08T09:58:02;40.33;;;20.58;;
40945;SDS011;55635;50.264;11.918;2024-03-08T10:01:02;32.92;;;19.25;;
40945;SDS011;55635;50.264;11.918;2024-03-08T10:03:46;32.75;;;18.52;;
40945;SDS011;55635;50.264;11.918;2024-03-08T10:06:29;39.17;;;20.50;;
40945;SDS011;55635;50.264;11.918;2024-03-08T10:09:11;37.78;;;20.90;;
40945;SDS011;55635;50.264;11.918;2024-03-08T10:11:56;38.63;;;18.88;;
40945;SDS011;55635;50.264;11.918;2024-03-08T10:14:40;32.47;;;17.40;;
40945;SDS011;55635;50.264;11.918;2024-03-08T10:17:22;31.15;;;18.27;;
40945;SDS011;55635;50.264;11.918;2024-03-08T10:20:04;33.28;;;19.48;;
40945;SDS011;55635;50.264;11.918;2024-03-08T10:22:55;34.42;;;19.13;;
40945;SDS011;55635;50.264;11.918;2024-03-08T10:25:36;31.92;;;18.00;;
40945;SDS011;55635;50.264;11.918;2024-03-08T10:28:17;34.58;;;19.30;;
40945;SDS011;55635;50.264;11.918;2024-03-08T10:30:58;34.83;;;17.98;;
40945;SDS011;55635;50.264;11.918;2024-03-08T10:33:39;29.48;;;16.60;;
40945;SDS011;55635;50.264;11.918;2024-03-08T10:36:20;29.98;;;18.05;;
40945;SDS011;55635;50.264;11.918;2024-03-08T10:39:01;30.30;;;18.27;;
40945;SDS011;55635;50.264;11.918;2024-03-08T10:41:43;28.48;;;16.90;;
40945;SDS011;55635;50.264;11.918;2024-03-08T10:47:21;29.95;;;17.63;;
40945;SDS011;55635;50.264;11.918;2024-03-08T10:50:18;29.85;;;17.63;;
40945;SDS011;55635;50.264;11.918;2024-03-08T10:53:06;27.80;;;17.40;;
40945;SDS011;55635;50.264;11.918;2024-03-08T10:55:50;28.40;;;18.08;;
40945;SDS011;55635;50.264;11.918;2024-03-08T10:58:33;29.20;;;16.50;;
40945;SDS011;55635;50.264;11.918;2024-03-08T11:01:19;30.10;;;17.17;;
40945;SDS011;55635;50.264;11.918;2024-03-08T11:04:03;26.45;;;15.65;;
40945;SDS011;55635;50.264;11.918;2024-03-08T11:06:45;25.23;;;16.00;;
40945;SDS011;55635;50.264;11.918;2024-03-08T11:09:35;26.95;;;16.90;;
40945;SDS011;55635;50.264;11.918;2024-03-08T11:15:00;29.58;;;17.77;;
40945;SDS011;55635;50.264;11.918;2024-03-08T11:17:53;27.88;;;16.88;;
40945;SDS011;55635;50.264;11.918;2024-03-08T11:20:40;25.25;;;15.18;;
40945;SDS011;55635;50.264;11.918;2024-03-08T11:23:24;28.20;;;15.93;;
40945;SDS011;55635;50.264;11.918;2024-03-08T11:34:54;24.30;;;14.48;;
40945;SDS011;55635;50.264;11.918;2024-03-08T11:37:35;24.67;;;15.73;;
40945;SDS011;55635;50.264;11.918;2024-03-08T11:40:16;21.77;;;13.57;;
40945;SDS011;55635;50.264;11.918;2024-03-08T11:42:59;23.08;;;15.23;;
40945;SDS011;55635;50.264;11.918;2024-03-08T11:45:43;20.33;;;13.38;;
40945;SDS011;55635;50.264;11.918;2024-03-08T11:48:24;22.25;;;14.75;;
40945;SDS011;55635;50.264;11.918;2024-03-08T11:51:05;23.42;;;14.50;;
40945;SDS011;55635;50.264;11.918;2024-03-08T11:53:48;23.95;;;14.65;;
40945;SDS011;55635;50.264;11.918;2024-03-08T11:56:32;25.60;;;13.68;;
40945;SDS011;55635;50.264;11.918;2024-03-08T11:59:14;23.38;;;14.75;;
40945;SDS011;55635;50.264;11.918;2024-03-08T12:02:02;22.35;;;13.60;;
40945;SDS011;55635;50.264;11.918;2024-03-08T12:04:46;20.77;;;13.70;;
40945;SDS011;55635;50.264;11.918;2024-03-08T12:07:27;22.27;;;14.55;;
40945;SDS011;55635;50.264;11.918;2024-03-08T12:10:20;25.08;;;15.15;;
40945;SDS011;55635;50.264;11.918;2024-03-08T12:13:02;20.73;;;13.68;;
40945;SDS011;55635;50.264;11.918;2024-03-08T12:15:43;21.05;;;13.15;;
40945;SDS011;55635;50.264;11.918;2024-03-08T12:18:28;23.67;;;12.80;;
40945;SDS011;55635;50.264;11.918;2024-03-08T12:21:18;20.13;;;12.80;;
40945;SDS011;55635;50.264;11.918;2024-03-08T12:24:05;20.50;;;12.88;;
40945;SDS011;55635;50.264;11.918;2024-03-08T12:26:53;20.05;;;12.70;;
40945;SDS011;55635;50.264;11.918;2024-03-08T12:29:37;19.17;;;13.45;;
40945;SDS011;55635;50.264;11.918;2024-03-08T12:32:19;21.80;;;13.05;;
40945;SDS011;55635;50.264;11.918;2024-03-08T12:35:03;18.98;;;12.85;;
40945;SDS011;55635;50.264;11.918;2024-03-08T12:37:51;18.20;;;12.95;;
40945;SDS011;55635;50.264;11.918;2024-03-08T12:40:35;21.05;;;12.27;;
40945;SDS011;55635;50.264;11.918;2024-03-08T12:43:20;17.10;;;12.15;;
40945;SDS011;55635;50.264;11.918;2024-03-08T12:46:01;20.42;;;12.27;;
40945;SDS011;55635;50.264;11.918;2024-03-08T12:48:44;16.45;;;11.15;;
40945;SDS011;55635;50.264;11.918;2024-03-08T12:51:27;17.02;;;11.35;;
40945;SDS011;55635;50.264;11.918;2024-03-08T12:54:09;16.80;;;11.50;;
40945;SDS011;55635;50.264;11.918;2024-03-08T12:56:50;16.70;;;11.85;;
40945;SDS011;55635;50.264;11.918;2024-03-08T12:59:33;20.45;;;12.48;;
40945;SDS011;55635;50.264;11.918;2024-03-08T13:02:14;18.92;;;12.32;;
40945;SDS011;55635;50.264;11.918;2024-03-08T13:04:56;19.73;;;12.02;;
40945;SDS011;55635;50.264;11.918;2024-03-08T13:07:38;21.73;;;13.35;;
40945;SDS011;55635;50.264;11.918;2024-03-08T13:10:20;19.50;;;13.00;;
40945;SDS011;55635;50.264;11.918;2024-03-08T13:13:02;21.45;;;13.50;;
40945;SDS011;55635;50.264;11.918;2024-03-08T13:15:45;21.10;;;14.13;;
40945;SDS011;55635;50.264;11.918;2024-03-08T13:18:25;20.75;;;13.10;;
40945;SDS011;55635;50.264;11.918;2024-03-08T13:21:07;20.30;;;12.73;;
40945;SDS011;55635;50.264;11.918;2024-03-08T13:23:49;21.08;;;12.65;;
40945;SDS011;55635;50.264;11.918;2024-03-08T13:26:33;18.15;;;10.93;;
40945;SDS011;55635;50.264;11.918;2024-03-08T13:29:14;14.45;;;10.27;;
40945;SDS011;55635;50.264;11.918;2024-03-08T13:31:55;15.15;;;10.60;;
40945;SDS011;55635;50.264;11.918;2024-03-08T13:34:41;15.23;;;11.70;;
40945;SDS011;55635;50.264;11.918;2024-03-08T13:37:23;14.65;;;11.18;;
40945;SDS011;55635;50.264;11.918;2024-03-08T13:40:04;16.50;;;10.38;;
40945;SDS011;55635;50.264;11.918;2024-03-08T13:42:46;15.02;;;10.65;;
40945;SDS011;55635;50.264;11.918;2024-03-08T13:45:29;19.88;;;12.57;;
40945;SDS011;55635;50.264;11.918;2024-03-08T13:48:10;22.48;;;13.65;;
40945;SDS011;55635;50.264;11.918;2024-03-08T13:50:53;20.20;;;13.35;;
40945;SDS011;55635;50.264;11.918;2024-03-08T13:53:35;20.73;;;13.35;;
40945;SDS011;55635;50.264;11.918;2024-03-08T13:56:16;20.73;;;12.90;;
40945;SDS011;55635;50.264;11.918;2024-03-08T13:58:57;20.85;;;13.02;;
40945;SDS011;55635;50.264;11.918;2024-03-08T14:01:38;20.27;;;13.25;;
40945;SDS011;55635;50.264;11.918;2024-03-08T14:04:19;20.85;;;11.98;;
40945;SDS011;55635;50.264;11.918;2024-03-08T14:07:00;21.20;;;12.90;;
40945;SDS011;55635;50.264;11.918;2024-03-08T14:09:43;19.05;;;13.40;;
40945;SDS011;55635;50.264;11.918;2024-03-08T14:12:25;22.15;;;13.57;;
40945;SDS011;55635;50.264;11.918;2024-03-08T14:15:06;20.83;;;12.88;;
40945;SDS011;55635;50.264;11.918;2024-03-08T14:17:52;21.67;;;13.25;;
40945;SDS011;55635;50.264;11.918;2024-03-08T14:20:34;21.52;;;14.27;;
40945;SDS011;55635;50.264;11.918;2024-03-08T14:23:15;17.42;;;12.45;;
40945;SDS011;55635;50.264;11.918;2024-03-08T14:25:56;20.73;;;12.95;;
40945;SDS011;55635;50.264;11.918;2024-03-08T14:28:39;20.80;;;11.40;;
40945;SDS011;55635;50.264;11.918;2024-03-08T14:31:20;20.23;;;12.90;;
40945;SDS011;55635;50.264;11.918;2024-03-08T14:34:05;17.92;;;12.65;;
40945;SDS011;55635;50.264;11.918;2024-03-08T14:36:47;21.58;;;13.45;;
40945;SDS011;55635;50.264;11.918;2024-03-08T14:39:28;21.85;;;13.48;;
40945;SDS011;55635;50.264;11.918;2024-03-08T14:42:09;19.55;;;13.65;;
40945;SDS011;55635;50.264;11.918;2024-03-08T14:44:54;17.88;;;11.45;;
40945;SDS011;55635;50.264;11.918;2024-03-08T14:47:37;17.40;;;12.10;;
40945;SDS011;55635;50.264;11.918;2024-03-08T14:50:18;20.08;;;12.63;;
40945;SDS011;55635;50.264;11.918;2024-03-08T14:53:01;21.05;;;12.07;;
40945;SDS011;55635;50.264;11.918;2024-03-08T14:55:46;18.00;;;12.18;;
40945;SDS011;55635;50.264;11.918;2024-03-08T14:58:27;17.48;;;11.13;;
40945;SDS011;55635;50.264;11.918;2024-03-08T15:01:08;16.35;;;11.25;;
40945;SDS011;55635;50.264;11.918;2024-03-08T15:03:50;17.10;;;12.15;;
40945;SDS011;55635;50.264;11.918;2024-03-08T15:06:31;20.73;;;12.68;;
40945;SDS011;55635;50.264;11.918;2024-03-08T15:09:13;16.00;;;11.52;;
40945;SDS011;55635;50.264;11.918;2024-03-08T15:12:00;15.13;;;10.75;;
40945;SDS011;55635;50.264;11.918;2024-03-08T15:14:41;16.42;;;10.57;;
40945;SDS011;55635;50.264;11.918;2024-03-08T15:17:24;15.27;;;10.32;;
40945;SDS011;55635;50.264;11.918;2024-03-08T15:20:05;13.85;;;10.20;;
40945;SDS011;55635;50.264;11.918;2024-03-08T15:22:56;18.00;;;10.95;;
40945;SDS011;55635;50.264;11.918;2024-03-08T15:25:38;14.80;;;10.60;;
40945;SDS011;55635;50.264;11.918;2024-03-08T15:28:22;16.38;;;11.05;;
40945;SDS011;55635;50.264;11.918;2024-03-08T15:31:10;15.50;;;10.60;;
40945;SDS011;55635;50.264;11.918;2024-03-08T15:33:52;16.35;;;10.10;;
40945;SDS011;55635;50.264;11.918;2024-03-08T15:36:40;16.48;;;10.70;;
40945;SDS011;55635;50.264;11.918;2024-03-08T15:39:23;14.90;;;8.98;;
40945;SDS011;55635;50.264;11.918;2024-03-08T15:42:04;15.75;;;10.57;;
40945;SDS011;55635;50.264;11.918;2024-03-08T15:44:45;17.35;;;10.75;;
40945;SDS011;55635;50.264;11.918;2024-03-08T15:47:27;17.27;;;10.93;;
40945;SDS011;55635;50.264;11.918;2024-03-08T15:50:08;18.58;;;10.07;;